Time;durP1;ratioP1;P1;durP2;ratioP2;P2;SDS_P1;SDS_P2;PMS_P1;PMS_P2;Temp;Humidity;BMP_temperature;BMP_pressure;BME280_temperature;BME280_humidity;BME280_pressure;Samples;Min_cycle;Max_cycle;Signal;HPM_P1;HPM_P2
2022/07/03 00:01:24;;;;;;;3.25;1.92;;;18.00;99.90;;;;;;6217048;23;20016;-71
2022/07/03 00:03:50;;;;;;;3.97;2.08;;;18.00;99.90;;;;;;6217047;23;20020;-70
2022/07/03 00:06:16;;;;;;;2.80;1.85;;;17.90;99.90;;;;;;6216971;23;20529;-71
2022/07/03 00:08:42;;;;;;;3.40;2.10;;;17.90;99.90;;;;;;6216971;23;20054;-71
2022/07/03 00:11:09;;;;;;;2.70;1.63;;;18.00;99.90;;;;;;6216877;23;20012;-71
2022/07/03 00:13:34;;;;;;;3.63;1.60;;;18.00;99.90;;;;;;6216771;23;20091;-70
2022/07/03 00:16:00;;;;;;;3.45;2.08;;;17.90;99.90;;;;;;6190344;23;20059;-70
2022/07/03 00:18:26;;;;;;;3.30;1.80;;;17.90;99.90;;;;;;6216784;23;20330;-72
2022/07/03 00:21:01;;;;;;;5.72;2.30;;;17.90;99.90;;;;;;6216866;23;20021;-71
2022/07/03 00:23:47;;;;;;;4.20;2.47;;;17.90;99.90;;;;;;6189648;23;20023;-70
2022/07/03 00:26:13;;;;;;;4.03;2.80;;;17.90;99.90;;;;;;6190282;23;20095;-71
2022/07/03 00:28:41;;;;;;;;;;;17.90;99.90;;;;;;6216864;23;20493;-70
2022/07/03 00:31:08;;;;;;;3.45;2.45;;;17.90;99.90;;;;;;6216677;23;19962;-72
2022/07/03 00:33:36;;;;;;;3.30;2.58;;;17.90;99.90;;;;;;6216737;23;20070;-72
2022/07/03 00:36:02;;;;;;;4.85;3.22;;;17.80;99.90;;;;;;6216531;23;20035;-71
2022/07/03 00:38:28;;;;;;;4.63;2.97;;;17.80;99.90;;;;;;6216482;23;20106;-71
2022/07/03 00:40:54;;;;;;;5.25;2.75;;;17.80;99.90;;;;;;6216635;23;20024;-72
2022/07/03 00:43:20;;;;;;;9.35;2.85;;;17.80;99.90;;;;;;6216523;23;20031;-71
2022/07/03 00:45:49;;;;;;;6.13;3.20;;;17.80;99.90;;;;;;6216544;23;20028;-72
2022/07/03 00:48:17;;;;;;;5.25;2.70;;;17.80;99.90;;;;;;6216549;23;20017;-71
2022/07/03 00:50:48;;;;;;;5.10;2.70;;;17.80;99.90;;;;;;6216527;23;20016;-71
2022/07/03 00:53:19;;;;;;;2.60;2.10;;;17.80;99.90;;;;;;6216595;23;20020;-72
2022/07/03 00:55:49;;;;;;;3.33;2.50;;;17.80;99.90;;;;;;6189602;23;20079;-70
2022/07/03 00:58:17;;;;;;;6.65;2.97;;;17.80;99.90;;;;;;6216360;23;20020;-70
2022/07/03 01:00:44;;;;;;;4.78;2.92;;;17.70;99.90;;;;;;6189813;23;20087;-71
2022/07/03 01:03:16;;;;;;;6.03;2.55;;;17.60;99.90;;;;;;6216485;23;20013;-71
2022/07/03 01:05:50;;;;;;;4.18;2.63;;;17.60;99.90;;;;;;6216370;23;20402;-71
2022/07/03 01:08:36;;;;;;;2.83;2.28;;;17.60;99.90;;;;;;6216453;23;20048;-72
2022/07/03 01:11:23;;;;;;;4.15;3.20;;;17.60;99.90;;;;;;6216369;23;20017;-71
2022/07/03 01:14:27;;;;;;;5.50;2.60;;;17.50;99.90;;;;;;6216219;23;20012;-72
2022/07/03 01:17:02;;;;;;;3.50;2.53;;;17.50;99.90;;;;;;6216259;23;20382;-71
2022/07/03 01:19:41;;;;;;;4.73;2.97;;;17.40;99.90;;;;;;6216794;23;20013;-72
2022/07/03 01:22:16;;;;;;;5.18;3.03;;;17.40;99.90;;;;;;6189638;23;20338;-71
2022/07/03 01:24:53;;;;;;;3.60;2.45;;;17.40;99.90;;;;;;6216224;23;20051;-70
2022/07/03 01:27:27;;;;;;;3.58;2.85;;;17.40;99.90;;;;;;6216216;23;20072;-70
2022/07/03 01:30:08;;;;;;;4.45;3.00;;;17.30;99.90;;;;;;6216064;23;20023;-71
2022/07/03 01:32:43;;;;;;;6.53;3.78;;;17.30;99.90;;;;;;6216191;23;20044;-70
2022/07/03 01:35:12;;;;;;;4.75;3.13;;;17.30;99.90;;;;;;6216151;23;20055;-71
2022/07/03 01:37:40;;;;;;;3.85;2.85;;;17.30;99.90;;;;;;6188725;23;20413;-71
2022/07/03 01:40:08;;;;;;;4.70;3.35;;;17.30;99.90;;;;;;6189563;23;20103;-70
2022/07/03 01:42:40;;;;;;;5.18;3.67;;;17.20;99.90;;;;;;6216098;23;20397;-70
2022/07/03 01:45:09;;;;;;;5.63;3.58;;;17.20;99.90;;;;;;6216217;23;20016;-70
2022/07/03 01:47:37;;;;;;;5.47;3.70;;;17.20;99.90;;;;;;6215708;23;20012;-71
2022/07/03 01:50:03;;;;;;;8.05;3.63;;;17.20;99.90;;;;;;6215978;23;20020;-71
2022/07/03 01:52:32;;;;;;;5.00;3.72;;;17.20;99.90;;;;;;6216023;23;20024;-70
2022/07/03 01:55:01;;;;;;;3.38;3.08;;;17.20;99.90;;;;;;6216015;23;20023;-71
2022/07/03 01:57:42;;;;;;;3.67;3.00;;;17.20;99.90;;;;;;6189442;23;20016;-71
2022/07/03 02:00:09;;;;;;;4.38;3.22;;;17.20;99.90;;;;;;6188989;23;20021;-70
2022/07/03 02:02:39;;;;;;;3.80;3.15;;;17.20;99.90;;;;;;6215831;23;20021;-70
2022/07/03 02:05:32;;;;;;;8.68;3.88;;;17.20;99.90;;;;;;6163988;23;20513;-71
2022/07/03 02:08:45;;;;;;;5.05;2.88;;;17.20;99.90;;;;;;6189280;23;20430;-70
2022/07/03 02:11:15;;;;;;;4.80;3.30;;;17.10;99.90;;;;;;6065677;23;20029;-73
2022/07/03 02:13:52;;;;;;;6.63;3.63;;;17.10;99.90;;;;;;6065577;23;20027;-71
2022/07/03 02:16:19;;;;;;;;;;;17.10;99.90;;;;;;6066146;23;20030;-72
2022/07/03 02:19:18;;;;;;;6.47;4.00;;;17.00;99.90;;;;;;6041764;23;19960;-71
2022/07/03 02:21:49;;;;;;;5.97;3.65;;;17.00;99.90;;;;;;5980369;24;20460;-70
2022/07/03 02:24:19;;;;;;;5.38;3.03;;;17.00;99.90;;;;;;5980594;24;20091;-71
2022/07/03 02:27:09;;;;;;;4.85;3.10;;;17.00;99.90;;;;;;5980412;23;20020;-71
2022/07/03 02:29:46;;;;;;;5.03;3.47;;;16.90;99.90;;;;;;5980451;24;20390;-70
2022/07/03 02:32:17;;;;;;;8.63;3.78;;;16.90;99.90;;;;;;5957145;24;20024;-71
2022/07/03 02:35:02;;;;;;;7.55;3.80;;;16.90;99.90;;;;;;5957249;24;20024;-70
2022/07/03 02:37:32;;;;;;;7.75;4.32;;;16.80;99.90;;;;;;5980194;24;20016;-70
2022/07/03 02:40:07;;;;;;;9.60;3.95;;;16.80;99.90;;;;;;5980456;24;20027;-70
2022/07/03 02:42:45;;;;;;;4.90;3.75;;;16.70;99.90;;;;;;5934317;24;20051;-69
2022/07/03 02:45:11;;;;;;;6.40;4.28;;;16.70;99.90;;;;;;5980239;24;20149;-70
2022/07/03 02:47:37;;;;;;;7.57;4.53;;;16.70;99.90;;;;;;6117684;23;20014;-71
2022/07/03 02:50:10;;;;;;;5.88;4.50;;;16.70;99.90;;;;;;6123600;23;20061;-69
2022/07/03 02:52:41;;;;;;;6.97;4.25;;;16.70;99.90;;;;;;6123611;23;20580;-70
2022/07/03 02:55:24;;;;;;;8.75;4.90;;;16.70;99.90;;;;;;6123719;23;20025;-69
2022/07/03 02:58:05;;;;;;;7.38;4.78;;;16.70;99.90;;;;;;6159009;23;20040;-71
2022/07/03 03:00:35;;;;;;;6.38;4.05;;;16.70;99.90;;;;;;6215579;23;20048;-70
2022/07/03 03:03:02;;;;;;;5.40;4.45;;;16.70;99.90;;;;;;6164319;23;20031;-70
2022/07/03 03:05:40;;;;;;;6.68;4.30;;;16.70;99.90;;;;;;6189199;23;20047;-71
2022/07/03 03:08:21;;;;;;;4.53;3.60;;;16.60;99.90;;;;;;6164272;23;20421;-71
2022/07/03 03:10:50;;;;;;;7.47;3.85;;;16.50;99.90;;;;;;6215692;23;20024;-70
2022/07/03 03:13:19;;;;;;;5.18;3.78;;;16.50;99.90;;;;;;6188903;23;20020;-71
2022/07/03 03:16:07;;;;;;;6.30;4.38;;;16.50;99.90;;;;;;6215552;23;20055;-70
2022/07/03 03:18:38;;;;;;;4.82;3.55;;;16.50;99.90;;;;;;6215920;23;20013;-70
2022/07/03 03:21:06;;;;;;;5.05;3.78;;;16.40;99.90;;;;;;6190926;23;20104;-69
2022/07/03 03:23:42;;;;;;;5.28;3.25;;;16.40;99.90;;;;;;6217436;23;20016;-71
2022/07/03 03:26:08;;;;;;;6.32;3.20;;;16.30;99.90;;;;;;6217376;23;20016;-70
2022/07/03 03:28:34;;;;;;;5.40;4.00;;;16.30;99.90;;;;;;6190849;23;20024;-71
2022/07/03 03:31:00;;;;;;;5.68;3.60;;;16.20;99.90;;;;;;6217216;23;20052;-71
2022/07/03 03:33:26;;;;;;;5.47;3.30;;;16.10;99.90;;;;;;6217383;23;20027;-69
2022/07/03 03:35:52;;;;;;;3.35;3.05;;;16.00;99.90;;;;;;6217138;23;20016;-72
2022/07/03 03:38:18;;;;;;;5.53;3.55;;;16.00;99.90;;;;;;6190551;23;20070;-72
2022/07/03 03:40:45;;;;;;;5.05;3.47;;;15.90;99.90;;;;;;6217191;23;20056;-72
2022/07/03 03:43:10;;;;;;;7.13;4.47;;;15.90;99.90;;;;;;6217109;23;20020;-71
2022/07/03 03:45:36;;;;;;;4.82;4.20;;;15.80;99.90;;;;;;6217164;23;20016;-71
2022/07/03 03:48:02;;;;;;;4.13;3.63;;;15.80;99.90;;;;;;6217190;23;20087;-71
2022/07/03 03:50:27;;;;;;;6.20;3.20;;;15.80;99.90;;;;;;6216777;23;20040;-69
2022/07/03 03:52:54;;;;;;;6.72;4.25;;;15.80;99.90;;;;;;6217087;23;20023;-70
2022/07/03 03:55:20;;;;;;;6.18;4.00;;;15.80;99.90;;;;;;6217212;23;20020;-70
2022/07/03 03:57:45;;;;;;;7.57;4.78;;;15.90;99.90;;;;;;6217004;23;20017;-71
2022/07/03 04:00:11;;;;;;;6.38;4.30;;;15.90;99.90;;;;;;6216652;23;20056;-70
2022/07/03 04:02:37;;;;;;;7.13;4.93;;;16.00;99.90;;;;;;6190417;23;20430;-70
2022/07/03 04:05:03;;;;;;;7.97;5.25;;;16.00;99.90;;;;;;6190416;23;20012;-70
2022/07/03 04:07:29;;;;;;;7.18;5.20;;;16.00;99.90;;;;;;6217042;23;20015;-70
2022/07/03 04:09:54;;;;;;;7.00;4.60;;;16.00;99.90;;;;;;6216889;23;20048;-72
2022/07/03 04:12:20;;;;;;;6.43;4.95;;;16.00;99.90;;;;;;6216590;23;20519;-71
2022/07/03 04:14:46;;;;;;;8.07;4.72;;;16.20;99.90;;;;;;6216901;23;20025;-70
2022/07/03 04:17:11;;;;;;;6.35;4.43;;;16.10;99.90;;;;;;6216923;23;20016;-70
2022/07/03 04:19:37;;;;;;;5.93;4.68;;;16.10;99.90;;;;;;6216927;23;20434;-70
2022/07/03 04:22:08;;;;;;;6.68;4.65;;;16.20;99.90;;;;;;6190262;23;20021;-70
2022/07/03 04:24:35;;;;;;;5.28;4.35;;;16.20;99.90;;;;;;6216796;23;20013;-70
2022/07/03 04:27:00;;;;;;;5.78;4.90;;;16.20;99.90;;;;;;6190294;23;20123;-72
2022/07/03 04:29:26;;;;;;;5.20;3.67;;;16.20;99.90;;;;;;6190189;23;20055;-72
2022/07/03 04:31:52;;;;;;;5.68;4.35;;;16.20;99.90;;;;;;6216845;23;20021;-70
2022/07/03 04:34:17;;;;;;;5.53;3.70;;;16.20;99.90;;;;;;6189914;23;20544;-70
2022/07/03 04:36:43;;;;;;;6.18;3.67;;;16.10;99.90;;;;;;6216556;23;20016;-70
2022/07/03 04:39:09;;;;;;;5.22;4.10;;;16.10;99.90;;;;;;6190369;23;20020;-72
2022/07/03 04:41:35;;;;;;;10.30;4.63;;;16.00;99.90;;;;;;6216615;23;20079;-72
2022/07/03 04:44:00;;;;;;;7.10;4.70;;;16.00;99.90;;;;;;6216729;23;20058;-71
2022/07/03 04:46:26;;;;;;;7.43;5.28;;;15.90;99.90;;;;;;6216958;23;20087;-72
2022/07/03 04:48:51;;;;;;;8.57;5.68;;;15.90;99.90;;;;;;6216561;23;20091;-70
2022/07/03 04:51:17;;;;;;;9.93;5.45;;;15.90;99.90;;;;;;6216530;23;20023;-71
2022/07/03 04:53:43;;;;;;;8.50;5.57;;;15.90;99.90;;;;;;6216603;23;20017;-73
2022/07/03 04:56:08;;;;;;;7.28;5.53;;;15.90;99.90;;;;;;6216548;23;20020;-71
2022/07/03 04:58:34;;;;;;;12.43;5.53;;;15.90;99.90;;;;;;6215978;23;20013;-71
2022/07/03 05:01:00;;;;;;;9.10;6.38;;;15.90;99.90;;;;;;6215988;23;20100;-72
2022/07/03 05:03:27;;;;;;;8.90;5.63;;;15.90;99.90;;;;;;6216854;23;20035;-71
2022/07/03 05:05:52;;;;;;;9.73;6.05;;;15.90;99.90;;;;;;6216458;23;20028;-69
2022/07/03 05:08:21;;;;;;;8.50;6.07;;;16.00;99.90;;;;;;6216462;23;20008;-70
2022/07/03 05:10:47;;;;;;;10.52;6.20;;;16.00;99.90;;;;;;6216371;23;20446;-70
2022/07/03 05:13:13;;;;;;;7.60;6.80;;;16.00;99.90;;;;;;6189676;23;20016;-70
2022/07/03 05:15:38;;;;;;;10.18;7.65;;;16.00;99.90;;;;;;6216362;23;20501;-72
2022/07/03 05:18:04;;;;;;;8.13;7.28;;;16.00;99.90;;;;;;6216293;23;20055;-69
2022/07/03 05:20:30;;;;;;;9.90;7.63;;;16.00;99.90;;;;;;6216308;23;20438;-71
2022/07/03 05:22:57;;;;;;;8.60;7.22;;;16.00;99.90;;;;;;6216236;23;20450;-70
2022/07/03 05:25:23;;;;;;;9.13;7.35;;;16.00;99.90;;;;;;6216223;23;20043;-70
2022/07/03 05:27:55;;;;;;;;;;;16.00;99.90;;;;;;6216777;23;20051;-72
2022/07/03 05:30:22;;;;;;;9.93;7.07;;;16.00;99.90;;;;;;6189603;23;19919;-71
2022/07/03 05:32:48;;;;;;;9.88;7.28;;;16.10;99.90;;;;;;6164938;23;20025;-72
2022/07/03 05:35:14;;;;;;;11.20;7.75;;;16.10;99.90;;;;;;6216571;23;20027;-70
2022/07/03 05:37:40;;;;;;;9.82;7.32;;;16.10;99.90;;;;;;6215957;23;20013;-72
2022/07/03 05:40:06;;;;;;;11.77;6.43;;;16.10;99.90;;;;;;6216106;23;20039;-70
2022/07/03 05:42:32;;;;;;;;;;;16.20;99.90;;;;;;6214958;23;20472;-70
2022/07/03 05:44:58;;;;;;;7.88;7.05;;;16.20;99.90;;;;;;6213908;23;19916;-70
2022/07/03 05:47:24;;;;;;;8.88;7.10;;;16.20;99.90;;;;;;6215539;23;20331;-71
2022/07/03 05:49:49;;;;;;;12.80;7.22;;;16.30;99.90;;;;;;6216362;23;20078;-70
2022/07/03 05:52:16;;;;;;;7.75;6.95;;;16.30;99.90;;;;;;6215906;23;20437;-70
2022/07/03 05:54:42;;;;;;;10.32;7.43;;;16.30;99.90;;;;;;6189453;23;20025;-70
2022/07/03 05:57:07;;;;;;;7.80;6.55;;;16.30;99.90;;;;;;6189174;23;20027;-71
2022/07/03 05:59:33;;;;;;;8.73;7.15;;;16.30;99.90;;;;;;6215868;23;20385;-72
2022/07/03 06:01:59;;;;;;;7.93;6.97;;;16.40;99.90;;;;;;6215965;23;20092;-71
2022/07/03 06:04:24;;;;;;;7.95;6.57;;;16.40;99.90;;;;;;6215970;23;20020;-70
2022/07/03 06:06:50;;;;;;;8.48;6.63;;;16.50;99.90;;;;;;6189483;23;20037;-70
2022/07/03 06:09:16;;;;;;;13.45;6.95;;;16.50;99.90;;;;;;6215914;23;20046;-70
2022/07/03 06:11:41;;;;;;;8.30;6.22;;;16.60;99.90;;;;;;6215818;23;20028;-71
2022/07/03 06:14:07;;;;;;;7.15;6.35;;;16.70;99.90;;;;;;6215881;23;20031;-72
2022/07/03 06:16:33;;;;;;;8.52;6.57;;;16.70;99.90;;;;;;6215693;23;20027;-69
2022/07/03 06:18:59;;;;;;;11.38;6.63;;;16.80;99.90;;;;;;6215885;23;20055;-71
2022/07/03 06:21:24;;;;;;;6.35;5.75;;;16.90;99.90;;;;;;6215839;23;20315;-70
2022/07/03 06:23:50;;;;;;;9.93;6.07;;;16.90;99.90;;;;;;6215864;23;20021;-71
2022/07/03 06:26:16;;;;;;;8.45;6.55;;;17.00;99.90;;;;;;6215816;23;20450;-73
2022/07/03 06:28:42;;;;;;;10.48;6.32;;;17.10;99.90;;;;;;6189316;23;20094;-72
2022/07/03 06:31:08;;;;;;;8.27;6.68;;;17.10;99.90;;;;;;6215688;23;20023;-72
2022/07/03 06:33:34;;;;;;;9.38;7.32;;;17.20;99.90;;;;;;6215796;23;20016;-73
2022/07/03 06:36:00;;;;;;;7.47;6.18;;;17.30;99.90;;;;;;6215644;23;20330;-71
2022/07/03 06:38:25;;;;;;;9.05;6.25;;;17.40;99.90;;;;;;6189080;23;20051;-70
2022/07/03 06:40:51;;;;;;;12.02;6.95;;;17.40;99.90;;;;;;6215787;23;20021;-71
2022/07/03 06:43:17;;;;;;;9.13;6.75;;;17.50;99.90;;;;;;6215520;23;20357;-71
2022/07/03 06:45:42;;;;;;;9.43;5.70;;;17.60;99.90;;;;;;6215681;23;20524;-71
2022/07/03 06:48:08;;;;;;;7.40;5.47;;;17.70;99.90;;;;;;6189275;23;20342;-71
2022/07/03 06:50:34;;;;;;;7.13;5.95;;;17.80;99.90;;;;;;6189321;23;20349;-71
2022/07/03 06:53:00;;;;;;;4.95;4.45;;;17.90;99.90;;;;;;6189091;23;20410;-71
2022/07/03 06:55:26;;;;;;;5.82;3.85;;;17.90;99.90;;;;;;6217630;23;20092;-70
2022/07/03 06:57:52;;;;;;;;;;;18.10;99.90;;;;;;6218153;23;20019;-71
2022/07/03 07:00:18;;;;;;;5.07;3.17;;;18.10;99.90;;;;;;6217486;23;19915;-70
2022/07/03 07:02:43;;;;;;;6.15;4.03;;;18.20;99.90;;;;;;6217620;23;20023;-71
2022/07/03 07:05:09;;;;;;;3.67;2.70;;;18.40;99.90;;;;;;6217635;23;20017;-72
2022/07/03 07:07:35;;;;;;;2.67;1.83;;;18.50;99.90;;;;;;6190818;23;20023;-73
2022/07/03 07:10:00;;;;;;;2.60;1.45;;;18.50;99.90;;;;;;6217514;23;20023;-71
2022/07/03 07:12:26;;;;;;;4.32;1.23;;;18.60;99.90;;;;;;6217690;23;20096;-70
2022/07/03 07:14:52;;;;;;;2.30;1.25;;;18.70;99.90;;;;;;6217409;23;20017;-71
2022/07/03 07:17:17;;;;;;;3.92;1.60;;;18.70;99.90;;;;;;6217305;23;20337;-71
2022/07/03 07:19:43;;;;;;;2.40;1.40;;;18.70;99.90;;;;;;6190476;23;20020;-70
2022/07/03 07:22:09;;;;;;;3.80;1.63;;;18.90;99.90;;;;;;6217470;23;20077;-71
2022/07/03 07:24:34;;;;;;;7.75;2.03;;;18.90;99.90;;;;;;6190721;23;20063;-72
2022/07/03 07:27:00;;;;;;;5.75;1.38;;;19.00;99.90;;;;;;6217400;23;20091;-71
2022/07/03 07:29:26;;;;;;;;;;;19.00;99.90;;;;;;6217964;23;20050;-71
2022/07/03 07:31:52;;;;;;;4.88;1.98;;;19.10;99.90;;;;;;6217582;23;19916;-72
2022/07/03 07:34:17;;;;;;;3.20;1.45;;;19.20;99.90;;;;;;6217286;23;20024;-70
2022/07/03 07:36:43;;;;;;;5.53;2.30;;;19.30;99.90;;;;;;6217003;23;20311;-71
2022/07/03 07:39:09;;;;;;;3.50;1.45;;;19.40;99.90;;;;;;6190706;23;20087;-71
2022/07/03 07:41:36;;;;;;;5.15;1.80;;;19.40;99.90;;;;;;6217104;23;20012;-71
2022/07/03 07:44:02;;;;;;;3.13;1.30;;;19.50;99.90;;;;;;6216912;23;20060;-71
2022/07/03 07:46:28;;;;;;;2.67;1.08;;;19.60;99.90;;;;;;6217092;23;20338;-70
2022/07/03 07:48:54;;;;;;;2.22;1.45;;;19.60;99.90;;;;;;6217161;23;20457;-73
2022/07/03 07:51:20;;;;;;;4.25;1.60;;;19.60;99.90;;;;;;6165671;23;20016;-72
2022/07/03 07:53:45;;;;;;;2.53;1.20;;;19.60;99.90;;;;;;6217229;23;20013;-71
2022/07/03 07:56:11;;;;;;;2.20;1.15;;;19.60;99.90;;;;;;6217011;23;20087;-71
2022/07/03 07:58:37;;;;;;;2.10;1.20;;;19.60;99.90;;;;;;6190519;23;20012;-72
2022/07/03 08:06:30;;;;;;;4.07;0.88;;;19.70;99.90;;;;;;6215896;23;20076;-71
2022/07/03 08:08:56;;;;;;;3.47;1.10;;;19.80;99.90;;;;;;6213384;23;20009;-71
2022/07/03 08:11:21;;;;;;;;;;;19.80;99.90;;;;;;6216309;23;20135;-72
2022/07/03 08:13:47;;;;;;;2.20;0.73;;;19.80;99.90;;;;;;6216870;23;19923;-73
2022/07/03 08:16:13;;;;;;;3.22;1.00;;;19.80;99.90;;;;;;6217188;23;20017;-72
2022/07/03 08:18:39;;;;;;;4.55;1.67;;;19.80;99.90;;;;;;6216857;23;20036;-73
2022/07/03 08:21:05;;;;;;;2.67;1.40;;;19.90;99.90;;;;;;6165644;23;20429;-72
2022/07/03 08:23:31;;;;;;;3.00;1.20;;;19.90;99.90;;;;;;6216848;23;20225;-72
2022/07/03 08:25:56;;;;;;;3.05;1.23;;;20.00;99.90;;;;;;6189647;23;20075;-72
2022/07/03 08:28:22;;;;;;;5.30;1.10;;;20.00;99.90;;;;;;6216772;23;20047;-71
2022/07/03 08:30:48;;;;;;;;;;;20.00;99.90;;;;;;6217021;23;20021;-72
2022/07/03 08:33:14;;;;;;;1.73;0.80;;;20.10;99.90;;;;;;6216722;23;20343;-73
2022/07/03 08:35:40;;;;;;;2.45;0.90;;;20.20;99.90;;;;;;6189411;23;20017;-71
2022/07/03 08:38:06;;;;;;;1.50;0.82;;;20.10;99.90;;;;;;6216488;23;20333;-73
2022/07/03 08:40:32;;;;;;;2.53;1.10;;;20.20;99.90;;;;;;6189108;23;20057;-72
2022/07/03 08:42:58;;;;;;;;;;;20.20;99.90;;;;;;6216916;23;20326;-73
2022/07/03 08:45:25;;;;;;;2.72;1.17;;;20.20;99.90;;;;;;6216453;23;19923;-73
2022/07/03 08:47:54;;;;;;;3.85;1.48;;;20.30;99.90;;;;;;6216536;23;20024;-72
2022/07/03 08:50:20;;;;;;;2.35;1.40;;;20.30;99.90;;;;;;6216586;23;20095;-72
2022/07/03 08:52:47;;;;;;;5.38;1.67;;;20.30;99.90;;;;;;6216552;23;20020;-73
2022/07/03 08:55:15;;;;;;;1.27;1.08;;;20.40;99.90;;;;;;6189852;23;20012;-72
2022/07/03 08:57:42;;;;;;;2.50;1.30;;;20.50;99.90;;;;;;6216567;23;20021;-72
2022/07/03 09:00:11;;;;;;;2.33;1.15;;;20.50;99.90;;;;;;6216259;23;20107;-74
2022/07/03 09:02:40;;;;;;;6.65;1.33;;;20.50;99.90;;;;;;6216479;23;20398;-72
2022/07/03 09:05:07;;;;;;;3.88;1.10;;;20.60;99.90;;;;;;6216480;23;20016;-72
2022/07/03 09:07:38;;;;;;;1.67;1.00;;;20.60;99.90;;;;;;6216396;23;20013;-72
2022/07/03 09:10:05;;;;;;;5.40;1.45;;;20.60;99.90;;;;;;6216346;23;20096;-72
2022/07/03 09:12:31;;;;;;;2.40;1.10;;;20.70;99.90;;;;;;6215748;23;20478;-71
2022/07/03 09:14:58;;;;;;;3.20;1.70;;;20.70;99.90;;;;;;6189481;23;20104;-72
2022/07/03 09:17:24;;;;;;;2.58;1.30;;;20.80;99.90;;;;;;6215838;23;20013;-73
2022/07/03 09:19:50;;;;;;;3.63;1.40;;;20.90;99.90;;;;;;6216262;23;20021;-72
2022/07/03 09:22:36;;;;;;;6.90;1.40;;;21.00;99.90;;;;;;6216239;23;20370;-73
2022/07/03 09:25:10;;;;;;;6.75;1.98;;;21.00;99.90;;;;;;6214566;23;20016;-72
2022/07/03 09:27:38;;;;;;;9.00;1.70;;;21.00;99.90;;;;;;6188244;23;20024;-72
2022/07/03 09:30:04;;;;;;;6.25;2.10;;;21.00;99.90;;;;;;6215707;23;20020;-72
2022/07/03 09:32:41;;;;;;;2.78;1.17;;;21.00;99.90;;;;;;6215899;23;20442;-71
2022/07/03 09:35:23;;;;;;;;;;;21.00;99.90;;;;;;6216535;23;20311;-71
2022/07/03 09:37:48;;;;;;;2.85;1.60;;;21.00;99.90;;;;;;6215989;23;19916;-72
2022/07/03 09:40:14;;;;;;;3.50;1.48;;;21.00;99.90;;;;;;6215757;23;20024;-71
2022/07/03 09:42:40;;;;;;;;;;;21.10;99.90;;;;;;6189775;23;20016;-72
2022/07/03 09:45:06;;;;;;;2.55;1.75;;;21.10;99.90;;;;;;6215183;23;20241;-70
2022/07/03 09:47:33;;;;;;;5.55;1.48;;;21.10;99.90;;;;;;6216231;23;20027;-72
2022/07/03 09:50:02;;;;;;;6.40;1.70;;;21.10;99.90;;;;;;6189370;23;20012;-72
2022/07/03 09:52:45;;;;;;;2.20;1.40;;;21.20;99.90;;;;;;6189378;23;20350;-73
2022/07/03 09:55:10;;;;;;;4.43;1.65;;;21.20;99.90;;;;;;6215668;23;20074;-72
2022/07/03 09:57:38;;;;;;;6.28;1.60;;;21.30;99.90;;;;;;6215657;23;20426;-73
2022/07/03 10:00:13;;;;;;;3.20;1.30;;;21.30;99.90;;;;;;6215562;23;20072;-71
2022/07/03 10:02:58;;;;;;;2.20;1.50;;;21.30;99.90;;;;;;6215709;23;20021;-73
2022/07/03 10:05:26;;;;;;;2.75;1.67;;;21.30;99.90;;;;;;6215190;23;20445;-73
2022/07/03 10:07:57;;;;;;;2.97;1.88;;;21.30;99.90;;;;;;6215579;23;20438;-73
2022/07/03 10:10:26;;;;;;;2.60;1.75;;;21.30;99.90;;;;;;6163587;23;20095;-71
2022/07/03 10:12:53;;;;;;;4.55;1.70;;;21.20;99.90;;;;;;6188842;23;20020;-72
2022/07/03 10:15:20;;;;;;;2.75;1.50;;;21.30;99.90;;;;;;6188730;23;20013;-72
2022/07/03 10:17:51;;;;;;;3.28;1.20;;;21.30;99.90;;;;;;6215566;23;20519;-74
2022/07/03 10:20:42;;;;;;;3.60;1.85;;;21.30;99.90;;;;;;6215572;23;20017;-72
2022/07/03 10:23:09;;;;;;;3.22;1.48;;;21.30;99.90;;;;;;6065388;23;20054;-72
2022/07/03 10:25:35;;;;;;;2.50;1.42;;;21.20;99.90;;;;;;6065356;23;20148;-71
2022/07/03 10:28:01;;;;;;;5.35;1.80;;;21.20;99.90;;;;;;6066374;23;20023;-72
2022/07/03 10:30:28;;;;;;;2.33;1.50;;;21.20;99.90;;;;;;6067398;23;20019;-72
2022/07/03 10:32:55;;;;;;;2.15;1.10;;;21.30;99.90;;;;;;6067402;23;20023;-73
2022/07/03 10:35:47;;;;;;;4.43;1.80;;;21.20;99.90;;;;;;6043003;23;20380;-72
2022/07/03 10:38:28;;;;;;;2.55;1.45;;;21.30;99.90;;;;;;6067290;23;20127;-72
2022/07/03 10:46:49;;;;;;;2.28;1.40;;;21.40;99.90;;;;;;6067159;23;20062;-72
2022/07/03 10:49:15;;;;;;;2.90;1.58;;;21.40;99.90;;;;;;6067388;23;20109;-72
2022/07/03 10:52:00;;;;;;;;;;;21.40;99.90;;;;;;6067812;23;20059;-71
2022/07/03 10:54:27;;;;;;;2.30;1.02;;;21.40;99.90;;;;;;6043182;23;19917;-72
2022/07/03 10:57:02;;;;;;;2.53;1.40;;;21.40;99.90;;;;;;6043031;23;20101;-73
2022/07/03 10:59:45;;;;;;;1.80;1.17;;;21.40;99.90;;;;;;6088727;23;20025;-71
2022/07/03 11:02:21;;;;;;;1.67;1.00;;;21.40;99.90;;;;;;6160931;23;20096;-75
2022/07/03 11:04:59;;;;;;;4.70;1.33;;;21.30;99.90;;;;;;6160963;23;20057;-73
2022/07/03 11:07:25;;;;;;;1.95;1.17;;;21.30;99.90;;;;;;6187016;23;20481;-72
2022/07/03 11:10:12;;;;;;;2.85;0.90;;;21.20;99.90;;;;;;6186752;23;20353;-72
2022/07/03 11:12:59;;;;;;;1.25;0.73;;;21.10;99.90;;;;;;6187165;23;20025;-72
2022/07/03 11:15:25;;;;;;;2.83;1.40;;;21.10;99.90;;;;;;6186968;23;20028;-72
2022/07/03 11:18:11;;;;;;;1.52;0.82;;;21.10;99.90;;;;;;6187064;23;20013;-72
2022/07/03 11:20:43;;;;;;;1.80;0.73;;;21.10;99.90;;;;;;6187053;23;20448;-71
2022/07/03 11:23:27;;;;;;;3.60;0.80;;;21.20;99.90;;;;;;6186875;23;20028;-71
2022/07/03 11:25:58;;;;;;;1.75;0.50;;;21.30;99.90;;;;;;6186145;23;20017;-74
2022/07/03 11:28:33;;;;;;;3.03;0.70;;;21.30;99.90;;;;;;6160199;23;20021;-71
2022/07/03 11:31:08;;;;;;;2.35;0.52;;;21.40;99.90;;;;;;6186622;23;20100;-74
2022/07/03 11:33:51;;;;;;;2.22;0.50;;;21.40;99.90;;;;;;6187042;23;20021;-72
2022/07/03 11:36:17;;;;;;;3.78;0.50;;;21.40;99.90;;;;;;6193591;23;20020;-72
2022/07/03 11:38:44;;;;;;;1.60;0.70;;;21.60;99.90;;;;;;6216671;23;20067;-72
2022/07/03 11:41:12;;;;;;;1.20;0.55;;;21.60;99.90;;;;;;6216662;23;20150;-73
2022/07/03 11:43:49;;;;;;;1.20;0.60;;;21.60;99.90;;;;;;6216989;23;20032;-73
2022/07/03 11:46:23;;;;;;;1.50;0.40;;;21.60;99.90;;;;;;6216830;23;20031;-73
2022/07/03 11:48:49;;;;;;;7.95;0.73;;;21.60;99.90;;;;;;6189641;23;20180;-72
2022/07/03 11:51:15;;;;;;;;;;;21.60;99.90;;;;;;6217331;23;20020;-72
2022/07/03 11:53:41;;;;;;;1.80;0.45;;;21.60;99.90;;;;;;6216871;23;19951;-72
2022/07/03 11:56:09;;;;;;;1.15;0.40;;;21.60;99.90;;;;;;6190586;23;20027;-72
2022/07/03 11:58:45;;;;;;;1.40;0.60;;;21.70;99.90;;;;;;6216783;23;20333;-72
2022/07/03 12:01:27;;;;;;;1.60;0.52;;;21.70;99.90;;;;;;6216717;23;20319;-73
2022/07/03 12:04:09;;;;;;;1.00;0.40;;;21.80;99.90;;;;;;6216816;23;20016;-73
2022/07/03 12:06:34;;;;;;;0.68;0.40;;;21.80;99.90;;;;;;6189242;23;20017;-71
2022/07/03 12:09:00;;;;;;;;;;;21.80;99.90;;;;;;6190675;23;20024;-74
2022/07/03 12:11:26;;;;;;;1.27;0.73;;;21.80;99.90;;;;;;6189023;23;19916;-71
2022/07/03 12:13:52;;;;;;;;;;;21.80;99.90;;;;;;6165724;23;20021;-72
2022/07/03 12:16:18;;;;;;;0.80;0.50;;;21.90;99.90;;;;;;6216573;23;19986;-73
2022/07/03 12:18:50;;;;;;;;;;;22.00;99.90;;;;;;6190102;23;20394;-73
2022/07/03 12:21:17;;;;;;;0.98;0.50;;;22.00;99.90;;;;;;6216548;23;19923;-71
2022/07/03 12:23:50;;;;;;;1.25;0.63;;;22.00;99.90;;;;;;6216476;23;20095;-72
2022/07/03 12:26:36;;;;;;;0.80;0.40;;;22.00;99.90;;;;;;6189962;23;20039;-72
2022/07/03 12:29:15;;;;;;;1.30;0.50;;;22.00;99.90;;;;;;6216824;23;20176;-72
2022/07/03 12:31:48;;;;;;;2.60;0.60;;;21.90;99.90;;;;;;6215429;23;20347;-72
2022/07/03 12:34:14;;;;;;;1.27;0.50;;;21.80;99.90;;;;;;6215708;23;20020;-73
2022/07/03 12:36:53;;;;;;;2.78;0.40;;;21.80;99.90;;;;;;6216113;23;20021;-72
2022/07/03 12:39:19;;;;;;;1.95;0.50;;;21.80;99.90;;;;;;6215953;23;20449;-73
2022/07/03 12:41:44;;;;;;;;;;;21.80;99.90;;;;;;6216747;23;20028;-73
2022/07/03 12:44:10;;;;;;;3.28;0.50;;;21.80;99.90;;;;;;6216567;23;19916;-73
2022/07/03 12:46:36;;;;;;;;;;;21.90;99.90;;;;;;6189376;23;20027;-73
2022/07/03 12:49:12;;;;;;;2.25;0.60;;;22.00;99.90;;;;;;6188881;23;20003;-72
2022/07/03 12:51:43;;;;;;;0.70;0.50;;;22.10;99.90;;;;;;6215783;23;20024;-73
2022/07/03 12:54:31;;;;;;;1.60;0.38;;;22.10;99.90;;;;;;6216233;23;20020;-72
2022/07/03 13:00:07;;;;;;;1.23;0.50;;;22.20;99.90;;;;;;6216158;23;20409;-73
2022/07/03 13:02:33;;;;;;;0.90;0.40;;;22.20;99.90;;;;;;6216056;23;20056;-72
2022/07/03 13:05:00;;;;;;;1.17;0.40;;;22.20;99.90;;;;;;6216173;23;20020;-72
2022/07/03 13:07:30;;;;;;;3.22;0.40;;;22.30;99.90;;;;;;6216132;23;20495;-71
2022/07/03 13:10:03;;;;;;;0.70;0.30;;;22.30;99.90;;;;;;6216156;23;20044;-73
2022/07/03 13:12:29;;;;;;;0.63;0.40;;;22.30;99.90;;;;;;6216033;23;20020;-72
2022/07/03 13:14:55;;;;;;;;;;;22.30;99.90;;;;;;6216867;23;20013;-73
2022/07/03 13:17:21;;;;;;;0.95;0.30;;;22.30;99.90;;;;;;6188639;23;20515;-72